Flight Track Log - Related Links

Times and Time Zones

All times are in EDT time to prevent confusion due to time zone crossing. See the N600AJ flight status page for this flight to view local times or setup timezone preferences in your user account.

Time Position Orientation Groundspeed Altitude Reporting Facility
EDT Latitude Longitude Course Direction KTS MPH feet Rate Location/Type
Sun 07:23:12 PM 40.8167 -74.1500 309° West 193 222 1,900  Level New York TRACON
Sun 07:24:18 PM 40.7833 -74.2333 242° Southwest 212 244 8,200 4,100 Climbing New York TRACON
Sun 07:25:12 PM 40.8000 -74.3167 285° West 270 311 10,100 1,474 Climbing New York TRACON
Sun 07:26:12 PM 40.8667 -74.3667 330° Northwest 326 375 11,000 600 Climbing New York TRACON
Sun 07:26:52 PM 40.9328 -74.4047 336° Northwest 353 406 11,100 60 Climbing New York Center
Sun 07:27:52 PM 41.0256 -74.4347 346° North 393 452 11,100  Level New York Center
Sun 07:28:00 PM 41.1932 -74.5796 309° West  Level Estimated
Sun 07:28:52 PM 41.1217 -74.3544 32° Northeast 427 491 11,100  Level New York Center
Sun 07:29:52 PM 41.2161 -74.2656 35° Northeast 421 484 11,100 1,200 Level New York Center
Sun 07:30:52 PM 41.2961 -74.3031 341° North 329 379 13,500 2,450 Climbing New York Center
Sun 07:31:52 PM 41.3031 -74.4167 275° West 238 274 16,000 2,450 Climbing New York Center
Sun 07:32:52 PM 41.3636 -74.5469 302° West 341 392 18,400 2,250 Climbing New York Center
Sun 07:33:52 PM 41.4222 -74.6692 303° West 388 447 20,500 1,800 Climbing New York Center
Sun 07:34:52 PM 41.4828 -74.7892 304° West 396 456 22,000 750 Climbing New York Center
Sun 07:35:52 PM 41.5428 -74.9147 303° West 401 461 22,000  Level New York Center
Sun 07:36:52 PM 41.6050 -75.0406 304° West 406 467 22,000  Level New York Center
Sun 07:37:52 PM 41.6672 -75.1667 303° West 406 467 22,000  Level New York Center
Sun 07:38:52 PM 41.7269 -75.2900 303° West 406 467 22,000  Level New York Center
Sun 07:39:52 PM 41.7867 -75.4164 302° West 406 467 22,000  Level New York Center
Sun 07:40:52 PM 41.8483 -75.5433 303° West 406 467 22,000  Level New York Center
Sun 07:41:52 PM 41.9097 -75.6703 303° West 406 467 22,000  Level New York Center
Sun 07:42:52 PM 41.9689 -75.7975 302° West 406 467 22,000  Level New York Center
Sun 07:43:52 PM 42.0300 -75.9250 303° West 406 467 22,000  Level New York Center
Sun 07:44:52 PM 42.0869 -76.0522 301° West 406 467 22,000 -500 Level New York Center
Sun 07:45:52 PM 42.1478 -76.1803 303° West 406 467 21,000 -1,000 Descending New York Center
Sun 07:46:52 PM 42.2044 -76.3053 301° West 401 461 20,000 -945 Descending New York Center
Sun 07:48:18 PM 42.2914 -76.4844 303° West 402 463 18,700 -892 Descending Cleveland Center
Sun 07:49:20 PM 42.3508 -76.6122 302° West 402 463 17,800 -919 Descending Cleveland Center
Sun 07:50:22 PM 42.4092 -76.7375 302° West 398 458 16,800 -871 Descending Cleveland Center
Sun 07:51:24 PM 42.4639 -76.8592 301° West 386 444 16,000 -500 Descending Cleveland Center
Sun 07:52:22 PM 42.5233 -76.9919 301° West 380 437 15,800 -97 Descending Cleveland Center
Sun 07:52:26 PM 42.5197 -76.9800 112° Southeast 380 437 15,900 -2,000 Climbing Cleveland Center
Sun 07:53:04 PM 42.5794 -77.0606 315° West 381 438 14,400 -2,226 Descending Cleveland Center
Sun 07:53:28 PM 42.6119 -77.0975 320° Northwest 387 445 13,600 -2,361 Descending Cleveland Center
Sun 07:54:05 PM 42.6606 -77.1500 322° Northwest 369 425 12,000 -2,226 Descending Cleveland Center
Sun 07:54:30 PM 42.6886 -77.1819 320° Northwest 366 421 11,300 -1,545 Descending Cleveland Center
Sun 07:55:11 PM 42.7358 -77.2325 322° Northwest 273 314 10,300 -1,452 Descending Cleveland Center
Sun 07:55:32 PM 42.7486 -77.2489 317° Northwest 289 333 9,800 -1,970 Descending Cleveland Center
Sun 07:56:18 PM 42.7981 -77.3033 321° Northwest 272 313 8,100 -1,905 Descending Cleveland Center
Sun 07:56:35 PM 42.8056 -77.3144 313° West 273 314 7,800 -1,967 Descending Cleveland Center
Sun 07:57:19 PM 42.8531 -77.3664 321° Northwest 256 295 6,100 -1,935 Descending Cleveland Center
Sun 07:57:37 PM 42.8608 -77.3758 318° Northwest 263 303 5,800 -1,900 Descending Cleveland Center
Sun 07:58:19 PM 42.9100 -77.4275 322° Northwest 261 300 4,200 -2,032 Descending Cleveland Center
Sun 07:58:39 PM 42.9297 -77.4447 327° Northwest 260 299 3,700 -1,574 Descending Cleveland Center
Sun 07:59:20 PM 42.9717 -77.4725 334° Northwest 257 296 2,600 -1,452 Descending Cleveland Center
Sun 07:59:41 PM 42.9939 -77.4825 342° North 257 296 2,200 -500 Descending Cleveland Center
Sun 08:00:20 PM 43.0381 -77.4983 345° North 208 239 2,100 -97 Descending Cleveland Center
Sun 08:00:43 PM 43.0506 -77.5064 335° Northwest 235 270 2,100  Level Cleveland Center
Sun 08:01:21 PM 43.0892 -77.5264 339° North 195 224 2,100  Level Cleveland Center
Sun 08:01:45 PM 43.1000 -77.5347 331° Northwest 211 243 2,100 -111 Level Cleveland Center
Sun 08:02:15 PM 43.1247 -77.5617 322° Northwest 157 181 2,000 -387 Descending Cleveland Center
Sun 08:02:47 PM 43.1250 -77.5794 271° West 180 207 1,700 -787 Descending Cleveland Center
Sun 08:03:16 PM 43.1236 -77.6136 267° West 133 153 1,200 -871 Descending Cleveland Center
Sun 08:03:49 PM 43.1222 -77.6431 266° West 150 173 800 -442 Descending Cleveland Center
Sun 08:04:51 PM 43.1214 -77.6769 268° West 110 127 500 -290 Descending Cleveland Center
Sun 08:06:00 PM 43.1167 -77.6667 270° West  Level FlightAware Approximate

Login

Don't have an account? Register now (free) for customized features, flight alerts, and more!